sensor_id;sensor_type;location;lat;lon;timestamp;pressure;altitude;pressure_sealevel;temperature;humidity
60089;BME280;45961;53.574;55.878;2023-12-20T00:00:15;99732.28;;;-2.71;82.37
60089;BME280;45961;53.574;55.878;2023-12-20T00:01:16;99735.44;;;-2.75;82.42
60089;BME280;45961;53.574;55.878;2023-12-20T00:02:17;99737.16;;;-2.74;82.53
60089;BME280;45961;53.574;55.878;2023-12-20T00:03:18;99732.03;;;-2.76;82.64
60089;BME280;45961;53.574;55.878;2023-12-20T00:04:18;99723.56;;;-2.76;82.69
60089;BME280;45961;53.574;55.878;2023-12-20T00:05:19;99715.72;;;-2.81;82.93
60089;BME280;45961;53.574;55.878;2023-12-20T00:06:20;99719.75;;;-2.84;82.87
60089;BME280;45961;53.574;55.878;2023-12-20T00:07:20;99725.91;;;-2.79;82.96
60089;BME280;45961;53.574;55.878;2023-12-20T00:08:21;99720.63;;;-2.84;83.11
60089;BME280;45961;53.574;55.878;2023-12-20T00:09:22;99719.91;;;-2.81;83.05
60089;BME280;45961;53.574;55.878;2023-12-20T00:10:23;99723.56;;;-2.76;83.19
60089;BME280;45961;53.574;55.878;2023-12-20T00:11:24;99721.03;;;-2.76;83.16
60089;BME280;45961;53.574;55.878;2023-12-20T00:12:25;99712.56;;;-2.77;83.15
60089;BME280;45961;53.574;55.878;2023-12-20T00:13:25;99718.00;;;-2.85;83.36
60089;BME280;45961;53.574;55.878;2023-12-20T00:14:26;99716.41;;;-2.83;83.51
60089;BME280;45961;53.574;55.878;2023-12-20T00:15:27;99712.94;;;-2.85;83.37
60089;BME280;45961;53.574;55.878;2023-12-20T00:16:28;99709.63;;;-2.84;83.47
60089;BME280;45961;53.574;55.878;2023-12-20T00:17:28;99710.72;;;-2.79;83.46
60089;BME280;45961;53.574;55.878;2023-12-20T00:18:29;99707.41;;;-2.78;83.52
60089;BME280;45961;53.574;55.878;2023-12-20T00:19:30;99703.94;;;-2.80;83.34
60089;BME280;45961;53.574;55.878;2023-12-20T00:20:31;99708.19;;;-2.79;83.47
60089;BME280;45961;53.574;55.878;2023-12-20T00:21:31;99701.47;;;-2.79;83.25
60089;BME280;45961;53.574;55.878;2023-12-20T00:22:32;99689.03;;;-2.74;83.26
60089;BME280;45961;53.574;55.878;2023-12-20T00:23:33;99688.09;;;-2.76;83.42
60089;BME280;45961;53.574;55.878;2023-12-20T00:24:34;99689.66;;;-2.78;83.27
60089;BME280;45961;53.574;55.878;2023-12-20T00:25:34;99701.69;;;-2.74;83.38
60089;BME280;45961;53.574;55.878;2023-12-20T00:26:35;99695.59;;;-2.78;83.34
60089;BME280;45961;53.574;55.878;2023-12-20T00:27:36;99698.06;;;-2.79;83.00
60089;BME280;45961;53.574;55.878;2023-12-20T00:28:37;99696.56;;;-2.76;83.27
60089;BME280;45961;53.574;55.878;2023-12-20T00:29:38;99703.63;;;-2.70;83.23
60089;BME280;45961;53.574;55.878;2023-12-20T00:30:39;99694.97;;;-2.74;83.26
60089;BME280;45961;53.574;55.878;2023-12-20T00:31:40;99707.75;;;-2.72;83.18
60089;BME280;45961;53.574;55.878;2023-12-20T00:32:40;99708.59;;;-2.71;83.25
60089;BME280;45961;53.574;55.878;2023-12-20T00:33:46;99718.31;;;-2.79;82.98
60089;BME280;45961;53.574;55.878;2023-12-20T00:34:47;99710.91;;;-2.76;83.37
60089;BME280;45961;53.574;55.878;2023-12-20T00:35:48;99714.31;;;-2.76;83.36
60089;BME280;45961;53.574;55.878;2023-12-20T00:36:49;99706.63;;;-2.77;83.29
60089;BME280;45961;53.574;55.878;2023-12-20T00:37:49;99707.41;;;-2.78;83.23
60089;BME280;45961;53.574;55.878;2023-12-20T00:38:50;99698.94;;;-2.79;83.20
60089;BME280;45961;53.574;55.878;2023-12-20T00:39:52;99698.13;;;-2.78;83.40
60089;BME280;45961;53.574;55.878;2023-12-20T00:40:53;99711.53;;;-2.80;83.32
60089;BME280;45961;53.574;55.878;2023-12-20T00:41:53;99702.19;;;-2.81;83.40
60089;BME280;45961;53.574;55.878;2023-12-20T00:42:54;99697.25;;;-2.78;83.41
60089;BME280;45961;53.574;55.878;2023-12-20T00:43:55;99699.03;;;-2.77;83.44
60089;BME280;45961;53.574;55.878;2023-12-20T00:44:56;99692.44;;;-2.74;83.74
60089;BME280;45961;53.574;55.878;2023-12-20T00:45:57;99687.31;;;-2.75;83.66
60089;BME280;45961;53.574;55.878;2023-12-20T00:47:00;99679.78;;;-2.74;83.57
60089;BME280;45961;53.574;55.878;2023-12-20T00:48:01;99678.28;;;-2.70;83.29
60089;BME280;45961;53.574;55.878;2023-12-20T00:49:02;99671.16;;;-2.77;83.28
60089;BME280;45961;53.574;55.878;2023-12-20T00:50:03;99668.53;;;-2.79;83.41
60089;BME280;45961;53.574;55.878;2023-12-20T00:51:04;99669.56;;;-2.75;83.38
60089;BME280;45961;53.574;55.878;2023-12-20T00:52:05;99672.75;;;-2.79;83.29
60089;BME280;45961;53.574;55.878;2023-12-20T00:53:05;99653.28;;;-2.80;83.49
60089;BME280;45961;53.574;55.878;2023-12-20T00:54:06;99657.59;;;-2.78;83.32
60089;BME280;45961;53.574;55.878;2023-12-20T00:55:07;99661.19;;;-2.74;83.51
60089;BME280;45961;53.574;55.878;2023-12-20T00:56:08;99658.34;;;-2.80;83.94
60089;BME280;45961;53.574;55.878;2023-12-20T00:57:09;99660.88;;;-2.80;84.15
60089;BME280;45961;53.574;55.878;2023-12-20T00:58:10;99651.53;;;-2.81;84.02
60089;BME280;45961;53.574;55.878;2023-12-20T00:59:11;99654.06;;;-2.81;84.30
60089;BME280;45961;53.574;55.878;2023-12-20T01:00:12;99643.03;;;-2.82;84.20
60089;BME280;45961;53.574;55.878;2023-12-20T01:01:13;99635.53;;;-2.80;84.61
60089;BME280;45961;53.574;55.878;2023-12-20T01:02:14;99637.50;;;-2.91;84.78
60089;BME280;45961;53.574;55.878;2023-12-20T01:03:15;99636.81;;;-2.88;85.28
60089;BME280;45961;53.574;55.878;2023-12-20T01:04:16;99625.09;;;-2.86;85.60
60089;BME280;45961;53.574;55.878;2023-12-20T01:05:19;99626.56;;;-2.90;85.86
60089;BME280;45961;53.574;55.878;2023-12-20T01:06:23;99614.19;;;-2.85;85.98
60089;BME280;45961;53.574;55.878;2023-12-20T01:07:24;99623.34;;;-2.87;86.26
60089;BME280;45961;53.574;55.878;2023-12-20T01:08:25;99618.50;;;-2.83;86.08
60089;BME280;45961;53.574;55.878;2023-12-20T01:09:25;99620.19;;;-2.83;85.98
60089;BME280;45961;53.574;55.878;2023-12-20T01:10:29;99615.28;;;-2.80;85.91
60089;BME280;45961;53.574;55.878;2023-12-20T01:11:29;99612.75;;;-2.80;85.85
60089;BME280;45961;53.574;55.878;2023-12-20T01:12:30;99608.72;;;-2.77;85.83
60089;BME280;45961;53.574;55.878;2023-12-20T01:13:31;99591.75;;;-2.78;85.76
60089;BME280;45961;53.574;55.878;2023-12-20T01:14:32;99597.72;;;-2.77;85.96
60089;BME280;45961;53.574;55.878;2023-12-20T01:15:33;99600.88;;;-2.81;86.02
60089;BME280;45961;53.574;55.878;2023-12-20T01:16:33;99589.09;;;-2.81;85.86
60089;BME280;45961;53.574;55.878;2023-12-20T01:17:34;99591.53;;;-2.82;86.06
60089;BME280;45961;53.574;55.878;2023-12-20T01:18:35;99578.56;;;-2.88;86.05
60089;BME280;45961;53.574;55.878;2023-12-20T01:19:36;99571.91;;;-2.86;86.15
60089;BME280;45961;53.574;55.878;2023-12-20T01:20:36;99571.84;;;-2.88;86.58
60089;BME280;45961;53.574;55.878;2023-12-20T01:21:37;99571.75;;;-2.89;86.53
60089;BME280;45961;53.574;55.878;2023-12-20T01:22:38;99571.03;;;-2.87;86.69
60089;BME280;45961;53.574;55.878;2023-12-20T01:23:39;99583.88;;;-2.84;86.78
60089;BME280;45961;53.574;55.878;2023-12-20T01:24:40;99583.94;;;-2.82;86.85
60089;BME280;45961;53.574;55.878;2023-12-20T01:25:41;99602.47;;;-2.83;86.94
60089;BME280;45961;53.574;55.878;2023-12-20T01:26:43;99608.63;;;-2.78;86.74
60089;BME280;45961;53.574;55.878;2023-12-20T01:27:44;99615.97;;;-2.83;86.75
60089;BME280;45961;53.574;55.878;2023-12-20T01:28:45;99610.28;;;-2.79;86.73
60089;BME280;45961;53.574;55.878;2023-12-20T01:29:46;99617.19;;;-2.76;86.81
60089;BME280;45961;53.574;55.878;2023-12-20T01:30:47;99606.94;;;-2.78;86.59
60089;BME280;45961;53.574;55.878;2023-12-20T01:31:47;99596.81;;;-2.78;86.65
60089;BME280;45961;53.574;55.878;2023-12-20T01:32:48;99601.03;;;-2.78;86.52
60089;BME280;45961;53.574;55.878;2023-12-20T01:33:49;99612.97;;;-2.76;86.34
60089;BME280;45961;53.574;55.878;2023-12-20T01:34:50;99610.69;;;-2.71;86.44
60089;BME280;45961;53.574;55.878;2023-12-20T01:35:50;99611.38;;;-2.74;86.42
60089;BME280;45961;53.574;55.878;2023-12-20T01:36:51;99610.53;;;-2.74;86.33
60089;BME280;45961;53.574;55.878;2023-12-20T01:37:52;99615.75;;;-2.71;86.25
60089;BME280;45961;53.574;55.878;2023-12-20T01:38:57;99608.09;;;-2.72;85.97
60089;BME280;45961;53.574;55.878;2023-12-20T01:39:58;99613.91;;;-2.74;86.07
60089;BME280;45961;53.574;55.878;2023-12-20T01:40:59;99608.84;;;-2.74;86.07
60089;BME280;45961;53.574;55.878;2023-12-20T01:42:00;99622.41;;;-2.73;86.01
60089;BME280;45961;53.574;55.878;2023-12-20T01:43:01;99610.69;;;-2.71;85.75
60089;BME280;45961;53.574;55.878;2023-12-20T01:44:02;99608.94;;;-2.72;85.64
60089;BME280;45961;53.574;55.878;2023-12-20T01:45:03;99616.78;;;-2.67;85.82
60089;BME280;45961;53.574;55.878;2023-12-20T01:46:04;99609.25;;;-2.66;85.79
60089;BME280;45961;53.574;55.878;2023-12-20T01:47:05;99616.78;;;-2.67;85.91
60089;BME280;45961;53.574;55.878;2023-12-20T01:48:07;99609.81;;;-2.71;85.99
60089;BME280;45961;53.574;55.878;2023-12-20T01:49:09;99599.75;;;-2.70;86.33
60089;BME280;45961;53.574;55.878;2023-12-20T01:50:09;99592.09;;;-2.71;86.37
60089;BME280;45961;53.574;55.878;2023-12-20T01:51:10;99594.06;;;-2.66;86.25
60089;BME280;45961;53.574;55.878;2023-12-20T01:52:11;99602.38;;;-2.68;86.28
60089;BME280;45961;53.574;55.878;2023-12-20T01:53:12;99595.56;;;-2.69;86.59
60089;BME280;45961;53.574;55.878;2023-12-20T01:54:14;99589.16;;;-2.63;86.66
60089;BME280;45961;53.574;55.878;2023-12-20T01:55:15;99585.69;;;-2.65;86.60
60089;BME280;45961;53.574;55.878;2023-12-20T01:56:16;99577.28;;;-2.64;86.82
60089;BME280;45961;53.574;55.878;2023-12-20T01:57:17;99564.53;;;-2.65;86.76
60089;BME280;45961;53.574;55.878;2023-12-20T01:58:19;99567.16;;;-2.64;86.79
60089;BME280;45961;53.574;55.878;2023-12-20T01:59:20;99572.00;;;-2.68;86.91
60089;BME280;45961;53.574;55.878;2023-12-20T02:00:22;99573.78;;;-2.66;87.11
60089;BME280;45961;53.574;55.878;2023-12-20T02:01:27;99574.06;;;-2.61;87.13
60089;BME280;45961;53.574;55.878;2023-12-20T02:02:28;99563.13;;;-2.60;87.21
60089;BME280;45961;53.574;55.878;2023-12-20T02:03:30;99564.91;;;-2.58;87.13
60089;BME280;45961;53.574;55.878;2023-12-20T02:04:31;99552.97;;;-2.60;87.28
60089;BME280;45961;53.574;55.878;2023-12-20T02:05:33;99556.38;;;-2.60;87.27
60089;BME280;45961;53.574;55.878;2023-12-20T02:06:34;99561.50;;;-2.58;87.59
60089;BME280;45961;53.574;55.878;2023-12-20T02:07:35;99562.53;;;-2.55;87.28
60089;BME280;45961;53.574;55.878;2023-12-20T02:08:36;99554.94;;;-2.55;87.60
60089;BME280;45961;53.574;55.878;2023-12-20T02:09:37;99559.06;;;-2.57;87.60
60089;BME280;45961;53.574;55.878;2023-12-20T02:10:39;99560.00;;;-2.55;87.66
60089;BME280;45961;53.574;55.878;2023-12-20T02:11:41;99552.56;;;-2.52;87.72
60089;BME280;45961;53.574;55.878;2023-12-20T02:12:42;99555.09;;;-2.52;88.04
60089;BME280;45961;53.574;55.878;2023-12-20T02:13:42;99563.72;;;-2.48;87.96
60089;BME280;45961;53.574;55.878;2023-12-20T02:14:43;99560.16;;;-2.52;87.94
60089;BME280;45961;53.574;55.878;2023-12-20T02:15:44;99555.91;;;-2.53;88.31
60089;BME280;45961;53.574;55.878;2023-12-20T02:16:45;99579.47;;;-2.54;88.01
60089;BME280;45961;53.574;55.878;2023-12-20T02:17:46;99550.97;;;-2.50;88.24
60089;BME280;45961;53.574;55.878;2023-12-20T02:18:47;99555.16;;;-2.50;88.42
60089;BME280;45961;53.574;55.878;2023-12-20T02:19:49;99563.00;;;-2.45;88.26
60089;BME280;45961;53.574;55.878;2023-12-20T02:20:50;99547.50;;;-2.52;88.18
60089;BME280;45961;53.574;55.878;2023-12-20T02:21:51;99544.00;;;-2.54;88.42
60089;BME280;45961;53.574;55.878;2023-12-20T02:23:05;99541.84;;;-2.46;88.36
60089;BME280;45961;53.574;55.878;2023-12-20T02:24:07;99548.69;;;-2.45;88.17
60089;BME280;45961;53.574;55.878;2023-12-20T02:25:08;99562.88;;;-2.49;88.24
60089;BME280;45961;53.574;55.878;2023-12-20T02:26:08;99566.50;;;-2.43;88.38
60089;BME280;45961;53.574;55.878;2023-12-20T02:27:09;99567.19;;;-2.46;88.24
60089;BME280;45961;53.574;55.878;2023-12-20T02:28:10;99573.94;;;-2.46;88.29
60089;BME280;45961;53.574;55.878;2023-12-20T02:29:11;99572.34;;;-2.44;88.39
60089;BME280;45961;53.574;55.878;2023-12-20T02:30:12;99560.72;;;-2.41;88.67
60089;BME280;45961;53.574;55.878;2023-12-20T02:31:13;99568.31;;;-2.41;88.51
60089;BME280;45961;53.574;55.878;2023-12-20T02:32:14;99561.56;;;-2.40;88.54
60089;BME280;45961;53.574;55.878;2023-12-20T02:33:16;99560.56;;;-2.44;88.67
60089;BME280;45961;53.574;55.878;2023-12-20T02:34:17;99555.50;;;-2.44;88.81
60089;BME280;45961;53.574;55.878;2023-12-20T02:35:17;99554.63;;;-2.44;88.93
60089;BME280;45961;53.574;55.878;2023-12-20T02:36:18;99559.81;;;-2.41;88.86
60089;BME280;45961;53.574;55.878;2023-12-20T02:37:19;99546.28;;;-2.42;89.13
60089;BME280;45961;53.574;55.878;2023-12-20T02:38:20;99546.28;;;-2.42;89.20
60089;BME280;45961;53.574;55.878;2023-12-20T02:39:21;99548.09;;;-2.39;89.17
60089;BME280;45961;53.574;55.878;2023-12-20T02:40:23;99538.84;;;-2.39;89.30
60089;BME280;45961;53.574;55.878;2023-12-20T02:41:23;99547.31;;;-2.38;89.30
60089;BME280;45961;53.574;55.878;2023-12-20T02:42:24;99537.25;;;-2.37;89.37
60089;BME280;45961;53.574;55.878;2023-12-20T02:43:25;99537.16;;;-2.38;89.46
60089;BME280;45961;53.574;55.878;2023-12-20T02:44:26;99531.88;;;-2.43;89.50
60089;BME280;45961;53.574;55.878;2023-12-20T02:45:26;99513.44;;;-2.40;89.76
60089;BME280;45961;53.574;55.878;2023-12-20T02:46:27;99507.56;;;-2.39;89.61
60089;BME280;45961;53.574;55.878;2023-12-20T02:47:28;99504.88;;;-2.42;89.95
60089;BME280;45961;53.574;55.878;2023-12-20T02:48:30;99514.19;;;-2.41;89.80
60089;BME280;45961;53.574;55.878;2023-12-20T02:49:31;99514.66;;;-2.32;90.00
60089;BME280;45961;53.574;55.878;2023-12-20T02:50:32;99506.97;;;-2.34;89.99
60089;BME280;45961;53.574;55.878;2023-12-20T02:51:32;99494.88;;;-2.39;90.11
60089;BME280;45961;53.574;55.878;2023-12-20T02:52:33;99499.31;;;-2.35;90.31
60089;BME280;45961;53.574;55.878;2023-12-20T02:53:34;99482.59;;;-2.32;90.34
60089;BME280;45961;53.574;55.878;2023-12-20T02:54:35;99490.25;;;-2.30;90.40
60089;BME280;45961;53.574;55.878;2023-12-20T02:55:36;99480.13;;;-2.30;90.38
60089;BME280;45961;53.574;55.878;2023-12-20T02:56:36;99494.41;;;-2.32;90.50
60089;BME280;45961;53.574;55.878;2023-12-20T02:57:37;99490.47;;;-2.26;90.66
60089;BME280;45961;53.574;55.878;2023-12-20T02:58:42;99496.44;;;-2.25;90.84
60089;BME280;45961;53.574;55.878;2023-12-20T02:59:43;99488.75;;;-2.27;91.06
60089;BME280;45961;53.574;55.878;2023-12-20T03:00:44;99476.22;;;-2.24;91.36
60089;BME280;45961;53.574;55.878;2023-12-20T03:01:45;99468.47;;;-2.27;91.33
60089;BME280;45961;53.574;55.878;2023-12-20T03:02:46;99483.13;;;-2.21;91.39
60089;BME280;45961;53.574;55.878;2023-12-20T03:03:47;99464.41;;;-2.23;91.43
60089;BME280;45961;53.574;55.878;2023-12-20T03:04:48;99473.91;;;-2.19;91.57
60089;BME280;45961;53.574;55.878;2023-12-20T03:05:49;99486.56;;;-2.19;91.49
60089;BME280;45961;53.574;55.878;2023-12-20T03:06:49;99474.56;;;-2.23;91.61
60089;BME280;45961;53.574;55.878;2023-12-20T03:07:50;99470.72;;;-2.15;91.89
60089;BME280;45961;53.574;55.878;2023-12-20T03:08:51;99469.78;;;-2.17;91.73
60089;BME280;45961;53.574;55.878;2023-12-20T03:09:52;99464.34;;;-2.25;91.67
60089;BME280;45961;53.574;55.878;2023-12-20T03:10:53;99457.88;;;-2.18;91.96
60089;BME280;45961;53.574;55.878;2023-12-20T03:11:54;99457.13;;;-2.17;91.70
60089;BME280;45961;53.574;55.878;2023-12-20T03:12:54;99472.44;;;-2.14;91.87
60089;BME280;45961;53.574;55.878;2023-12-20T03:13:55;99466.59;;;-2.13;91.75
60089;BME280;45961;53.574;55.878;2023-12-20T03:14:56;99449.50;;;-2.17;91.77
60089;BME280;45961;53.574;55.878;2023-12-20T03:15:57;99444.66;;;-2.12;91.75
60089;BME280;45961;53.574;55.878;2023-12-20T03:16:58;99431.81;;;-2.15;91.56
60089;BME280;45961;53.574;55.878;2023-12-20T03:17:59;99434.34;;;-2.15;91.65
60089;BME280;45961;53.574;55.878;2023-12-20T03:19:00;99439.38;;;-2.17;91.63
60089;BME280;45961;53.574;55.878;2023-12-20T03:20:01;99441.97;;;-2.15;91.75
60089;BME280;45961;53.574;55.878;2023-12-20T03:21:02;99415.53;;;-2.20;91.79
60089;BME280;45961;53.574;55.878;2023-12-20T03:22:06;99421.38;;;-2.21;91.99
60089;BME280;45961;53.574;55.878;2023-12-20T03:23:06;99420.66;;;-2.19;91.80
60089;BME280;45961;53.574;55.878;2023-12-20T03:24:07;99432.53;;;-2.18;92.00
60089;BME280;45961;53.574;55.878;2023-12-20T03:25:08;99421.63;;;-2.17;92.18
60089;BME280;45961;53.574;55.878;2023-12-20T03:26:09;99414.59;;;-2.22;92.03
60089;BME280;45961;53.574;55.878;2023-12-20T03:27:10;99410.53;;;-2.19;92.33
60089;BME280;45961;53.574;55.878;2023-12-20T03:28:11;99402.97;;;-2.17;92.34
60089;BME280;45961;53.574;55.878;2023-12-20T03:29:14;99397.91;;;-2.17;92.46
60089;BME280;45961;53.574;55.878;2023-12-20T03:30:15;99397.34;;;-2.12;92.32
60089;BME280;45961;53.574;55.878;2023-12-20T03:31:16;99406.97;;;-2.22;92.45
60089;BME280;45961;53.574;55.878;2023-12-20T03:32:17;99412.19;;;-2.19;92.58
60089;BME280;45961;53.574;55.878;2023-12-20T03:33:20;99404.59;;;-2.19;92.38
60089;BME280;45961;53.574;55.878;2023-12-20T03:34:21;99397.78;;;-2.20;92.67
60089;BME280;45961;53.574;55.878;2023-12-20T03:35:22;99399.47;;;-2.21;92.59
60089;BME280;45961;53.574;55.878;2023-12-20T03:36:23;99405.44;;;-2.19;92.80
60089;BME280;45961;53.574;55.878;2023-12-20T03:37:23;99397.91;;;-2.17;92.96
60089;BME280;45961;53.574;55.878;2023-12-20T03:38:24;99396.19;;;-2.18;92.93
60089;BME280;45961;53.574;55.878;2023-12-20T03:39:25;99389.53;;;-2.16;93.02
60089;BME280;45961;53.574;55.878;2023-12-20T03:40:26;99390.38;;;-2.16;93.12
60089;BME280;45961;53.574;55.878;2023-12-20T03:41:27;99389.22;;;-2.22;93.09
60089;BME280;45961;53.574;55.878;2023-12-20T03:42:27;99392.63;;;-2.22;93.31
60089;BME280;45961;53.574;55.878;2023-12-20T03:43:28;99392.72;;;-2.20;93.41
60089;BME280;45961;53.574;55.878;2023-12-20T03:44:29;99390.97;;;-2.21;93.62
60089;BME280;45961;53.574;55.878;2023-12-20T03:45:30;99418.28;;;-2.16;93.53
60089;BME280;45961;53.574;55.878;2023-12-20T03:46:31;99410.66;;;-2.16;93.63
60089;BME280;45961;53.574;55.878;2023-12-20T03:47:32;99415.75;;;-2.16;93.58
60089;BME280;45961;53.574;55.878;2023-12-20T03:48:32;99398.00;;;-2.16;93.79
60089;BME280;45961;53.574;55.878;2023-12-20T03:49:33;99397.03;;;-2.18;93.70
60089;BME280;45961;53.574;55.878;2023-12-20T03:50:37;99404.75;;;-2.16;93.77
60089;BME280;45961;53.574;55.878;2023-12-20T03:51:38;99398.06;;;-2.14;94.03
60089;BME280;45961;53.574;55.878;2023-12-20T03:52:38;99402.13;;;-2.18;94.10
60089;BME280;45961;53.574;55.878;2023-12-20T03:53:40;99398.81;;;-2.17;94.44
60089;BME280;45961;53.574;55.878;2023-12-20T03:54:41;99393.84;;;-2.14;94.31
60089;BME280;45961;53.574;55.878;2023-12-20T03:55:45;99399.78;;;-2.13;94.46
60089;BME280;45961;53.574;55.878;2023-12-20T03:56:45;99391.06;;;-2.20;94.43
60089;BME280;45961;53.574;55.878;2023-12-20T03:57:47;99390.97;;;-2.21;94.28
60089;BME280;45961;53.574;55.878;2023-12-20T03:58:47;99394.81;;;-2.12;94.44
60089;BME280;45961;53.574;55.878;2023-12-20T03:59:48;99392.78;;;-2.19;94.29
60089;BME280;45961;53.574;55.878;2023-12-20T04:00:49;99394.38;;;-2.21;94.50
60089;BME280;45961;53.574;55.878;2023-12-20T04:01:50;99397.91;;;-2.17;94.47
60089;BME280;45961;53.574;55.878;2023-12-20T04:02:51;99397.03;;;-2.18;94.50
60089;BME280;45961;53.574;55.878;2023-12-20T04:03:52;99396.84;;;-2.22;94.40
60089;BME280;45961;53.574;55.878;2023-12-20T04:04:53;99402.00;;;-2.21;94.50
60089;BME280;45961;53.574;55.878;2023-12-20T04:05:53;99397.91;;;-2.17;94.75
60089;BME280;45961;53.574;55.878;2023-12-20T04:06:54;99414.88;;;-2.16;94.52
60089;BME280;45961;53.574;55.878;2023-12-20T04:07:55;99404.66;;;-2.18;94.94
60089;BME280;45961;53.574;55.878;2023-12-20T04:08:56;99407.19;;;-2.18;94.99
60089;BME280;45961;53.574;55.878;2023-12-20T04:09:57;99402.00;;;-2.21;95.28
60089;BME280;45961;53.574;55.878;2023-12-20T04:10:57;99403.78;;;-2.18;95.17
60089;BME280;45961;53.574;55.878;2023-12-20T04:11:58;99397.19;;;-2.15;95.36
60089;BME280;45961;53.574;55.878;2023-12-20T04:12:59;99395.63;;;-2.13;95.45
60089;BME280;45961;53.574;55.878;2023-12-20T04:14:00;99396.31;;;-2.15;95.43
60089;BME280;45961;53.574;55.878;2023-12-20T04:15:01;99404.94;;;-2.12;95.30
60089;BME280;45961;53.574;55.878;2023-12-20T04:16:03;99400.88;;;-2.08;95.30
60089;BME280;45961;53.574;55.878;2023-12-20T04:17:05;99397.25;;;-2.13;95.16
60089;BME280;45961;53.574;55.878;2023-12-20T04:18:06;99404.94;;;-2.12;95.15
60089;BME280;45961;53.574;55.878;2023-12-20T04:19:06;99388.78;;;-2.14;95.24
60089;BME280;45961;53.574;55.878;2023-12-20T04:20:07;99387.84;;;-2.16;95.20
60089;BME280;45961;53.574;55.878;2023-12-20T04:21:08;99383.66;;;-2.15;95.32
60089;BME280;45961;53.574;55.878;2023-12-20T04:22:09;99381.19;;;-2.14;95.45
60089;BME280;45961;53.574;55.878;2023-12-20T04:23:10;99371.03;;;-2.14;95.33
60089;BME280;45961;53.574;55.878;2023-12-20T04:24:11;99373.50;;;-2.15;95.19
60089;BME280;45961;53.574;55.878;2023-12-20T04:25:11;99376.91;;;-2.15;95.46
60089;BME280;45961;53.574;55.878;2023-12-20T04:26:13;99379.59;;;-2.12;95.40
60089;BME280;45961;53.574;55.878;2023-12-20T04:27:13;99361.03;;;-2.11;95.57
60089;BME280;45961;53.574;55.878;2023-12-20T04:28:14;99366.78;;;-2.15;95.61
60089;BME280;45961;53.574;55.878;2023-12-20T04:29:15;99370.25;;;-2.13;95.84
60089;BME280;45961;53.574;55.878;2023-12-20T04:30:16;99376.97;;;-2.13;96.12
60089;BME280;45961;53.574;55.878;2023-12-20T04:31:16;99354.16;;;-2.13;96.12
60089;BME280;45961;53.574;55.878;2023-12-20T04:32:17;99370.13;;;-2.16;96.48
60089;BME280;45961;53.574;55.878;2023-12-20T04:33:18;99362.56;;;-2.14;96.54
60089;BME280;45961;53.574;55.878;2023-12-20T04:34:19;99380.41;;;-2.13;97.00
60089;BME280;45961;53.574;55.878;2023-12-20T04:35:20;99376.25;;;-2.11;96.98
60089;BME280;45961;53.574;55.878;2023-12-20T04:36:21;99365.09;;;-2.14;97.06
60089;BME280;45961;53.574;55.878;2023-12-20T04:37:22;99368.38;;;-2.17;97.53
60089;BME280;45961;53.574;55.878;2023-12-20T04:38:22;99364.75;;;-2.22;97.80
60089;BME280;45961;53.574;55.878;2023-12-20T04:39:23;99374.31;;;-2.16;97.96
60089;BME280;45961;53.574;55.878;2023-12-20T04:40:24;99379.25;;;-2.19;98.35
60089;BME280;45961;53.574;55.878;2023-12-20T04:41:25;99369.25;;;-2.16;98.46
60089;BME280;45961;53.574;55.878;2023-12-20T04:42:26;99370.97;;;-2.15;98.79
60089;BME280;45961;53.574;55.878;2023-12-20T04:43:26;99362.41;;;-2.17;98.79
60089;BME280;45961;53.574;55.878;2023-12-20T04:44:28;99369.31;;;-2.15;99.05
60089;BME280;45961;53.574;55.878;2023-12-20T04:45:29;99370.25;;;-2.13;98.91
60089;BME280;45961;53.574;55.878;2023-12-20T04:46:30;99355.81;;;-2.14;99.26
60089;BME280;45961;53.574;55.878;2023-12-20T04:47:30;99353.44;;;-2.11;99.16
60089;BME280;45961;53.574;55.878;2023-12-20T04:48:31;99363.56;;;-2.11;99.38
60089;BME280;45961;53.574;55.878;2023-12-20T04:49:32;99346.63;;;-2.12;99.39
60089;BME280;45961;53.574;55.878;2023-12-20T04:50:33;99345.88;;;-2.09;99.27
60089;BME280;45961;53.574;55.878;2023-12-20T04:51:34;99348.31;;;-2.12;99.42
60089;BME280;45961;53.574;55.878;2023-12-20T04:52:35;99351.84;;;-2.09;99.64
60089;BME280;45961;53.574;55.878;2023-12-20T04:53:36;99346.84;;;-2.07;99.67
60089;BME280;45961;53.574;55.878;2023-12-20T04:54:37;99362.91;;;-2.07;99.67
60089;BME280;45961;53.574;55.878;2023-12-20T04:55:37;99346.91;;;-2.06;99.79
60089;BME280;45961;53.574;55.878;2023-12-20T04:56:39;99347.03;;;-2.03;99.96
60089;BME280;45961;53.574;55.878;2023-12-20T04:57:40;99348.00;;;-2.01;99.78
60089;BME280;45961;53.574;55.878;2023-12-20T04:58:42;99341.16;;;-2.02;99.78
60089;BME280;45961;53.574;55.878;2023-12-20T04:59:42;99339.63;;;-1.98;99.88
60089;BME280;45961;53.574;55.878;2023-12-20T05:00:46;99346.38;;;-1.99;100.00
60089;BME280;45961;53.574;55.878;2023-12-20T05:01:47;99340.44;;;-1.99;100.00
60089;BME280;45961;53.574;55.878;2023-12-20T05:02:49;99335.44;;;-1.98;100.00
60089;BME280;45961;53.574;55.878;2023-12-20T05:03:49;99333.75;;;-1.97;100.00
60089;BME280;45961;53.574;55.878;2023-12-20T05:04:50;99329.34;;;-2.01;100.00
60089;BME280;45961;53.574;55.878;2023-12-20T05:05:51;99337.91;;;-1.99;100.00
60089;BME280;45961;53.574;55.878;2023-12-20T05:06:52;99331.81;;;-2.03;100.00
60089;BME280;45961;53.574;55.878;2023-12-20T05:07:53;99335.31;;;-2.01;100.00
60089;BME280;45961;53.574;55.878;2023-12-20T05:08:54;99336.22;;;-1.99;100.00
60089;BME280;45961;53.574;55.878;2023-12-20T05:09:54;99333.69;;;-1.99;100.00
60089;BME280;45961;53.574;55.878;2023-12-20T05:10:58;99324.28;;;-2.01;100.00
60089;BME280;45961;53.574;55.878;2023-12-20T05:11:59;99318.47;;;-1.99;100.00
60089;BME280;45961;53.574;55.878;2023-12-20T05:13:00;99333.69;;;-1.99;100.00
60089;BME280;45961;53.574;55.878;2023-12-20T05:14:01;99325.28;;;-1.98;100.00
60089;BME280;45961;53.574;55.878;2023-12-20T05:15:02;99337.97;;;-1.98;100.00
60089;BME280;45961;53.574;55.878;2023-12-20T05:16:04;99321.97;;;-1.96;100.00
60089;BME280;45961;53.574;55.878;2023-12-20T05:17:05;99327.09;;;-1.95;100.00
60089;BME280;45961;53.574;55.878;2023-12-20T05:18:07;99322.88;;;-1.94;100.00
60089;BME280;45961;53.574;55.878;2023-12-20T05:19:07;99317.75;;;-1.96;100.00